createdAt,value
2022-12-01T00:03:23.687Z,227.80
2022-12-01T00:08:23.541Z,223.60
2022-12-01T00:13:23.391Z,285.40
2022-12-01T00:18:23.379Z,393.20
2022-12-01T00:23:23.690Z,387.30
2022-12-01T00:28:23.495Z,306.00
2022-12-01T00:33:23.483Z,310.80
2022-12-01T00:38:25.192Z,272.50
2022-12-01T00:43:25.257Z,250.70
2022-12-01T00:48:23.049Z,355.80
2022-12-01T00:53:23.005Z,237.60
2022-12-01T00:58:22.915Z,285.00
2022-12-01T01:03:22.902Z,336.40
2022-12-01T01:08:22.864Z,311.40
2022-12-01T01:13:22.790Z,330.70
2022-12-01T01:18:22.728Z,281.80
2022-12-01T01:23:22.676Z,357.20
2022-12-01T01:28:22.581Z,505.50
2022-12-01T01:33:22.541Z,552.90
2022-12-01T01:38:22.480Z,368.80
2022-12-01T01:43:22.511Z,526.40
2022-12-01T01:48:22.394Z,508.90
2022-12-01T01:53:22.362Z,352.70
2022-12-01T01:58:22.375Z,526.80
2022-12-01T02:03:22.257Z,490.50
2022-12-01T02:08:22.202Z,381.10
2022-12-01T02:13:22.103Z,392.10
2022-12-01T02:18:22.101Z,275.40
2022-12-01T02:23:21.991Z,266.50
2022-12-01T02:28:21.961Z,198.20
2022-12-01T02:33:21.918Z,246.90
2022-12-01T02:38:21.876Z,242.90
2022-12-01T02:43:21.781Z,256.70
2022-12-01T02:48:21.758Z,249.30
2022-12-01T02:53:22.872Z,311.20
2022-12-01T02:58:21.703Z,262.20
2022-12-01T03:03:21.864Z,190.10
2022-12-01T03:08:21.641Z,221.00
2022-12-01T03:13:21.514Z,156.50
2022-12-01T03:18:21.439Z,158.60
2022-12-01T03:23:21.397Z,178.10
2022-12-01T03:28:22.436Z,176.60
2022-12-01T03:33:21.408Z,163.30
2022-12-01T03:38:21.214Z,162.30
2022-12-01T03:43:21.198Z,156.40
2022-12-01T03:48:21.118Z,178.20
2022-12-01T03:53:21.141Z,173.90
2022-12-01T03:58:21.044Z,146.70
2022-12-01T04:03:20.960Z,146.80
2022-12-01T04:08:20.920Z,144.10
2022-12-01T04:13:20.870Z,146.70
2022-12-01T04:18:21.037Z,149.60
2022-12-01T04:23:21.884Z,155.00
2022-12-01T04:28:20.677Z,213.50
2022-12-01T04:33:20.682Z,228.30
2022-12-01T04:38:20.626Z,195.30
2022-12-01T04:43:20.491Z,214.40
2022-12-01T04:48:20.467Z,235.30
2022-12-01T04:53:20.385Z,205.90
2022-12-01T04:58:20.409Z,232.30
2022-12-01T05:03:20.482Z,186.40
2022-12-01T05:08:20.405Z,154.80
2022-12-01T05:13:20.430Z,151.00
2022-12-01T05:18:20.207Z,116.50
2022-12-01T05:23:20.231Z,109.40
2022-12-01T05:28:20.046Z,102.40
2022-12-01T05:33:19.994Z,93.90
2022-12-01T05:38:19.921Z,95.00
2022-12-01T05:43:23.886Z,92.10
2022-12-01T05:48:20.839Z,94.10
2022-12-01T05:53:19.747Z,95.60
2022-12-01T05:58:19.678Z,111.90
2022-12-01T06:03:19.668Z,120.20
2022-12-01T06:08:19.683Z,108.80
2022-12-01T06:13:19.562Z,104.30
2022-12-01T06:18:19.634Z,107.60
2022-12-01T06:23:19.428Z,114.50
2022-12-01T06:28:19.400Z,90.70
2022-12-01T06:33:22.864Z,99.10
2022-12-01T06:38:19.415Z,83.80
2022-12-01T06:43:19.255Z,71.50
2022-12-01T06:48:19.142Z,75.30
2022-12-01T06:53:19.228Z,72.00
2022-12-01T06:58:19.095Z,64.20
2022-12-01T07:03:19.013Z,66.80
2022-12-01T07:08:18.974Z,76.10
2022-12-01T07:13:20.007Z,84.00
2022-12-01T07:18:18.799Z,105.50
2022-12-01T07:23:18.934Z,95.00
2022-12-01T07:28:18.725Z,103.60
2022-12-01T07:33:18.761Z,103.60
2022-12-01T07:38:22.130Z,107.50
2022-12-01T07:43:18.606Z,143.00
2022-12-01T07:48:18.690Z,192.90
2022-12-01T07:53:18.613Z,222.30
2022-12-01T07:58:18.506Z,207.20
2022-12-01T08:03:18.366Z,256.10
2022-12-01T08:08:18.512Z,238.00
2022-12-01T08:13:18.225Z,202.20
2022-12-01T08:18:18.364Z,227.70
2022-12-01T08:23:18.269Z,226.70
2022-12-01T08:28:18.056Z,208.90
2022-12-01T08:33:17.998Z,197.60
2022-12-01T08:38:17.954Z,198.10
2022-12-01T08:43:41.463Z,122.60
2022-12-01T08:48:18.968Z,107.10
2022-12-01T08:53:17.799Z,116.20
2022-12-01T08:58:17.785Z,99.30
2022-12-01T09:03:17.908Z,99.80
2022-12-01T09:08:17.737Z,103.20
2022-12-01T09:13:17.721Z,91.00
2022-12-01T09:18:17.512Z,87.30
2022-12-01T09:23:17.647Z,85.00
2022-12-01T09:28:17.480Z,87.30
2022-12-01T09:33:17.382Z,89.90
2022-12-01T09:38:17.335Z,103.10
2022-12-01T09:43:17.284Z,108.20
2022-12-01T09:48:17.284Z,120.80
2022-12-01T09:53:17.252Z,113.70
2022-12-01T09:58:17.206Z,140.50
2022-12-01T10:03:17.108Z,135.70
2022-12-01T10:08:17.106Z,126.30
2022-12-01T10:13:16.929Z,105.90
2022-12-01T10:18:16.868Z,107.90
2022-12-01T10:23:16.874Z,89.80
2022-12-01T10:28:16.925Z,76.50
2022-12-01T10:33:16.863Z,67.10
2022-12-01T10:38:16.691Z,67.30
2022-12-01T10:43:16.745Z,69.10
2022-12-01T10:48:16.673Z,92.40
2022-12-01T10:53:16.550Z,80.90
2022-12-01T10:58:16.459Z,66.60
2022-12-01T11:03:21.312Z,64.60
2022-12-01T11:08:17.352Z,64.90
2022-12-01T11:13:16.214Z,67.70
2022-12-01T11:18:18.288Z,70.50
2022-12-01T11:23:16.162Z,70.60
2022-12-01T11:28:16.193Z,72.20
2022-12-01T11:33:16.132Z,75.00
2022-12-01T11:38:31.295Z,80.80
2022-12-01T11:43:16.936Z,84.60
2022-12-01T11:48:15.872Z,90.30
2022-12-01T11:53:15.847Z,81.10
2022-12-01T11:58:15.982Z,84.90
2022-12-01T12:03:15.920Z,82.70
2022-12-01T12:08:15.839Z,86.70
2022-12-01T12:13:16.764Z,98.10
2022-12-01T12:18:15.703Z,93.60
2022-12-01T12:23:15.532Z,91.60
2022-12-01T12:28:15.516Z,93.70
2022-12-01T12:33:15.362Z,92.70
2022-12-01T12:38:15.358Z,89.80
2022-12-01T12:43:15.246Z,95.10
2022-12-01T12:48:15.196Z,99.60
2022-12-01T12:53:15.168Z,106.10
2022-12-01T12:58:15.231Z,105.60
2022-12-01T13:03:15.165Z,101.10
2022-12-01T13:08:15.076Z,98.50
2022-12-01T13:13:15.042Z,103.30
2022-12-01T13:18:14.870Z,100.50
2022-12-01T13:23:15.904Z,99.20
2022-12-01T13:28:14.741Z,88.90
2022-12-01T13:33:14.697Z,95.20
2022-12-01T13:38:14.682Z,85.20
2022-12-01T13:43:14.608Z,88.60
2022-12-01T13:48:14.572Z,82.10
2022-12-01T13:53:14.527Z,97.40
2022-12-01T13:58:14.408Z,97.90
2022-12-01T14:03:14.568Z,107.20
2022-12-01T14:08:18.336Z,100.00
2022-12-01T14:13:15.346Z,90.00
2022-12-01T14:18:14.187Z,97.50
2022-12-01T14:23:14.155Z,99.00
2022-12-01T14:28:14.084Z,92.40
2022-12-01T14:33:14.047Z,97.70
2022-12-01T14:38:13.983Z,97.80
2022-12-01T14:43:13.934Z,92.90
2022-12-01T14:48:13.953Z,90.00
2022-12-01T14:53:13.803Z,87.40
2022-12-01T14:58:13.773Z,91.90
2022-12-01T15:03:13.761Z,86.60
2022-12-01T15:08:40.428Z,84.60
2022-12-01T15:13:14.704Z,90.30
2022-12-01T15:18:13.676Z,89.70
2022-12-01T15:23:13.523Z,88.30
2022-12-01T15:28:13.475Z,94.20
2022-12-01T15:33:13.406Z,99.00
2022-12-01T15:38:13.343Z,99.80
2022-12-01T15:43:13.442Z,100.00
2022-12-01T15:48:13.243Z,101.40
2022-12-01T15:53:13.321Z,95.90
2022-12-01T15:58:14.262Z,93.10
2022-12-01T16:03:13.183Z,94.50
2022-12-01T16:08:14.012Z,98.60
2022-12-01T16:13:12.983Z,97.70
2022-12-01T16:18:12.871Z,94.30
2022-12-01T16:23:12.820Z,94.60
2022-12-01T16:28:12.794Z,108.10
2022-12-01T16:33:12.834Z,106.90
2022-12-01T16:38:12.783Z,95.50
2022-12-01T16:43:12.755Z,92.90
2022-12-01T16:48:12.763Z,95.00
2022-12-01T16:53:12.505Z,95.20
2022-12-01T16:58:12.455Z,96.60
2022-12-01T17:03:12.395Z,96.20
2022-12-01T17:08:12.454Z,102.80
2022-12-01T17:13:12.281Z,101.80
2022-12-01T17:18:12.363Z,99.30
2022-12-01T17:23:12.172Z,105.70
2022-12-01T17:28:12.149Z,100.90
2022-12-01T17:33:12.197Z,96.40
2022-12-01T17:38:12.120Z,90.40
2022-12-01T17:43:11.966Z,99.90
2022-12-01T17:48:20.798Z,99.60
2022-12-01T17:53:11.889Z,103.20
2022-12-01T17:58:11.789Z,92.40
2022-12-01T18:03:11.788Z,87.80
2022-12-01T18:08:11.798Z,87.80
2022-12-01T18:13:11.638Z,80.60
2022-12-01T18:18:11.610Z,83.00
2022-12-01T18:23:11.553Z,87.00
2022-12-01T18:28:11.499Z,88.50
2022-12-01T18:33:11.480Z,89.10
2022-12-01T18:38:11.413Z,90.50
2022-12-01T18:43:11.290Z,95.00
2022-12-01T18:48:11.319Z,92.40
2022-12-01T18:53:11.185Z,87.60
2022-12-01T18:58:11.182Z,82.40
2022-12-01T19:03:11.210Z,75.20
2022-12-01T19:08:11.197Z,73.90
2022-12-01T19:13:11.010Z,71.20
2022-12-01T19:18:10.929Z,66.40
2022-12-01T19:23:10.951Z,76.80
2022-12-01T19:28:10.833Z,67.10
2022-12-01T19:33:10.788Z,69.20
2022-12-01T19:38:10.708Z,64.20
2022-12-01T19:43:10.764Z,65.30
2022-12-01T19:48:10.678Z,59.90
2022-12-01T19:53:10.637Z,58.50
2022-12-01T19:58:10.539Z,56.20
2022-12-01T20:03:10.497Z,55.60
2022-12-01T20:08:10.467Z,55.10
2022-12-01T20:13:10.322Z,50.00
2022-12-01T20:18:10.280Z,47.30
2022-12-01T20:23:10.341Z,42.90
2022-12-01T20:28:10.170Z,45.90
2022-12-01T20:33:10.180Z,53.20
2022-12-01T20:38:10.114Z,47.20
2022-12-01T20:43:10.003Z,46.30
2022-12-01T20:48:09.978Z,56.00
2022-12-01T20:53:09.925Z,55.50
2022-12-01T20:58:10.898Z,56.60
2022-12-01T21:03:09.814Z,61.90
2022-12-01T21:08:09.865Z,59.50
2022-12-01T21:13:09.749Z,57.90
2022-12-01T21:18:09.623Z,58.90
2022-12-01T21:23:09.582Z,58.80
2022-12-01T21:28:09.501Z,57.40
2022-12-01T21:33:09.452Z,56.60
2022-12-01T21:38:10.401Z,62.00
2022-12-01T21:43:09.378Z,57.70
2022-12-01T21:48:09.280Z,59.90
2022-12-01T21:53:09.298Z,59.80
2022-12-01T21:58:09.156Z,54.80
2022-12-01T22:03:09.131Z,56.10
2022-12-01T22:08:09.184Z,58.90
2022-12-01T22:13:09.076Z,54.60
2022-12-01T22:18:10.995Z,68.20
2022-12-01T22:23:08.918Z,67.50
2022-12-01T22:28:08.852Z,63.80
2022-12-01T22:33:08.800Z,65.80
2022-12-01T22:38:08.745Z,68.20
2022-12-01T22:43:13.810Z,70.70
2022-12-01T22:48:09.695Z,67.20
2022-12-01T22:53:08.541Z,63.60
2022-12-01T22:58:08.627Z,66.70
2022-12-01T23:03:08.554Z,70.40
2022-12-01T23:08:08.586Z,74.80
2022-12-01T23:13:08.360Z,79.00
2022-12-01T23:18:08.311Z,71.30
2022-12-01T23:23:08.257Z,76.50
2022-12-01T23:28:08.204Z,72.30
2022-12-01T23:33:08.180Z,77.60
2022-12-01T23:38:08.173Z,76.60
2022-12-01T23:43:08.087Z,75.30
2022-12-01T23:48:11.084Z,75.60
2022-12-01T23:53:17.948Z,80.00
2022-12-01T23:58:08.094Z,87.00
